Time;durP1;ratioP1;P1;durP2;ratioP2;P2;SDS_P1;SDS_P2;PMS_P1;PMS_P2;Temp;Humidity;BMP_temperature;BMP_pressure;BME280_temperature;BME280_humidity;BME280_pressure;Samples;Min_cycle;Max_cycle;Signal;HPM_P1;HPM_P2
2023/03/20 00:00:46;;;;;;;;;;;;;;;6.64;100.00;96901.81;5064664;28;20442;-69
2023/03/20 00:03:12;;;;;;;;;;;;;;;6.74;100.00;96911.50;5057938;28;19927;-65
2023/03/20 00:05:38;;;;;;;;;;;;;;;6.61;100.00;96912.59;5064882;28;19928;-65
2023/03/20 00:08:03;;;;;;;;;;;;;;;6.57;100.00;96912.50;5058598;28;19989;-72
2023/03/20 00:10:35;;;;;;;;;;;;;;;6.54;100.00;96909.66;5063446;28;19975;-67
2023/03/20 00:13:01;;;;;;;;;;;;;;;6.54;100.00;96905.00;5046188;28;19916;-69
2023/03/20 00:15:32;;;;;;;;;;;;;;;6.59;100.00;96915.69;5043866;28;19921;-65
2023/03/20 00:17:57;;;;;;;;;;;;;;;6.59;100.00;96912.94;5045830;28;19921;-68
2023/03/20 00:20:22;;;;;;;;;;;;;;;6.53;100.00;96918.94;5041530;28;20356;-66
2023/03/20 00:22:48;;;;;;;;;;;;;;;6.54;100.00;96917.81;5044304;28;19917;-66
2023/03/20 00:25:15;;;;;;;;;;;;;;;6.57;100.00;96925.28;5038928;28;19921;-67
2023/03/20 00:27:40;;;;;;;;;;;;;;;6.58;100.00;96918.72;5042495;28;19917;-65
2023/03/20 00:30:14;;;;;;;;;;;;;;;6.54;100.00;96929.47;5033356;28;19966;-69
2023/03/20 00:32:40;;;;;;;;;;;;;;;6.49;100.00;96925.03;5043758;28;20312;-66
2023/03/20 00:35:20;;;;;;;;;;;;;;;6.52;100.00;96926.31;5039640;28;19916;-69
2023/03/20 00:37:45;;;;;;;;;;;;;;;6.44;100.00;96922.50;5043474;28;19917;-66
2023/03/20 00:40:11;;;;;;;;;;;;;;;6.53;100.00;96927.09;5039598;28;19927;-64
2023/03/20 00:42:36;;;;;;;;;;;;;;;6.56;100.00;96924.50;5043513;28;20282;-67
2023/03/20 00:45:02;;;;;;;;;;;;;;;6.48;100.00;96923.47;5043610;28;19932;-76
2023/03/20 00:47:27;;;;;;;;;;;;;;;6.73;100.00;96925.47;5043412;28;19917;-68
2023/03/20 00:49:53;;;;;;;;;;;;;;;6.93;100.00;96924.59;5052040;28;19920;-66
2023/03/20 00:52:19;;;;;;;;;;;;;;;6.95;100.00;96919.63;5021975;28;20416;-67
2023/03/20 00:54:44;;;;;;;;;;;;;;;6.96;100.00;96925.88;5058241;28;19970;-69
2023/03/20 00:57:19;;;;;;;;;;;;;;;7.02;100.00;96919.88;5052301;28;20425;-64
2023/03/20 00:59:53;;;;;;;;;;;;;;;6.92;100.00;96917.56;5043370;28;19940;-69
2023/03/20 01:02:20;;;;;;;;;;;;;;;7.06;100.00;96920.78;5038436;28;19917;-66
2023/03/20 01:04:47;;;;;;;;;;;;;;;7.03;100.00;96916.00;5042142;28;19931;-66
2023/03/20 01:07:13;;;;;;;;;;;;;;;7.10;100.00;96906.50;5038148;28;20011;-66
2023/03/20 01:09:38;;;;;;;;;;;;;;;7.06;100.00;96901.72;5042998;28;20008;-65
2023/03/20 01:12:04;;;;;;;;;;;;;;;7.03;100.00;96907.03;5038565;28;19921;-74
2023/03/20 01:14:29;;;;;;;;;;;;;;;6.99;100.00;96906.13;5042771;28;20377;-66
2023/03/20 01:16:55;;;;;;;;;;;;;;;6.82;100.00;96907.88;5040580;28;19921;-67
2023/03/20 01:19:20;;;;;;;;;;;;;;;6.68;100.00;96904.69;5039831;28;19943;-71
2023/03/20 01:21:45;;;;;;;;;;;;;;;6.57;100.00;96906.25;5060889;28;20342;-70
2023/03/20 01:24:11;;;;;;;;;;;;;;;6.55;100.00;96909.28;5045224;28;19925;-66
2023/03/20 01:26:36;;;;;;;;;;;;;;;6.54;100.00;96907.72;5044925;28;19988;-67
2023/03/20 01:29:02;;;;;;;;;;;;;;;6.49;100.00;96899.75;5043528;28;19916;-64
2023/03/20 01:31:27;;;;;;;;;;;;;;;6.42;100.00;96908.44;5055407;28;20267;-68
2023/03/20 01:33:53;;;;;;;;;;;;;;;6.45;100.00;96912.44;5043354;28;19924;-66
2023/03/20 01:36:21;;;;;;;;;;;;;;;6.38;100.00;96904.03;5037014;28;20338;-65
2023/03/20 01:38:51;;;;;;;;;;;;;;;6.46;100.00;96906.69;5057457;28;20263;-66
2023/03/20 01:41:17;;;;;;;;;;;;;;;6.42;100.00;96913.91;5038120;28;20366;-66
2023/03/20 01:43:42;;;;;;;;;;;;;;;6.44;100.00;96917.06;5042607;28;19999;-69
2023/03/20 01:46:07;;;;;;;;;;;;;;;6.58;100.00;96910.56;5037555;28;20336;-65
2023/03/20 01:48:51;;;;;;;;;;;;;;;6.66;100.00;96918.66;5041767;28;20293;-65
2023/03/20 01:51:16;;;;;;;;;;;;;;;6.68;100.00;96910.13;5036672;28;19943;-69
2023/03/20 01:53:43;;;;;;;;;;;;;;;6.64;100.00;96903.75;5042501;28;20588;-65
2023/03/20 01:56:09;;;;;;;;;;;;;;;6.47;100.00;96902.81;5052875;28;20008;-63
2023/03/20 01:58:37;;;;;;;;;;;;;;;6.19;100.00;96894.41;5042223;28;19917;-65
2023/03/20 02:01:05;;;;;;;;;;;;;;;6.09;100.00;96900.28;5038864;28;19925;-74
2023/03/20 02:03:31;;;;;;;;;;;;;;;6.04;100.00;96898.53;5057159;28;19979;-66
2023/03/20 02:05:57;;;;;;;;;;;;;;;6.17;100.00;96910.28;5041377;28;19931;-64
2023/03/20 02:08:26;;;;;;;;;;;;;;;6.27;100.00;96904.44;5036222;28;19917;-65
2023/03/20 02:10:52;;;;;;;;;;;;;;;6.45;100.00;96902.34;5042302;28;19921;-67
2023/03/20 02:13:18;;;;;;;;;;;;;;;6.44;100.00;96905.41;5038430;28;19921;-66
2023/03/20 02:16:02;;;;;;;;;;;;;;;6.44;100.00;96900.75;5040212;28;19916;-69
2023/03/20 02:18:27;;;;;;;;;;;;;;;6.51;100.00;96906.44;5057985;28;19920;-64
2023/03/20 02:21:11;;;;;;;;;;;;;;;6.30;100.00;96903.78;5061749;28;20388;-67
2023/03/20 02:23:43;;;;;;;;;;;;;;;6.15;100.00;96907.09;5061840;28;20012;-64
2023/03/20 02:26:25;;;;;;;;;;;;;;;6.16;100.00;96916.03;5057281;28;19924;-69
2023/03/20 02:29:00;;;;;;;;;;;;;;;6.09;100.00;96909.22;5062366;28;19917;-65
2023/03/20 02:31:44;;;;;;;;;;;;;;;6.17;100.00;96915.72;5057038;28;20073;-62
2023/03/20 02:34:18;;;;;;;;;;;;;;;6.15;100.00;96912.53;5057174;28;20099;-65
2023/03/20 02:37:02;;;;;;;;;;;;;;;6.18;100.00;96922.75;5064551;28;20422;-69
2023/03/20 02:39:36;;;;;;;;;;;;;;;6.27;100.00;96928.13;5057245;28;19963;-63
2023/03/20 02:42:19;;;;;;;;;;;;;;;6.27;100.00;96909.88;5059771;28;20343;-73
2023/03/20 02:44:54;;;;;;;;;;;;;;;6.28;100.00;96924.25;5059758;28;19944;-66
2023/03/20 02:47:54;;;;;;;;;;;;;;;6.36;100.00;96917.97;5056303;28;19924;-66
2023/03/20 02:50:22;;;;;;;;;;;;;;;6.45;100.00;96918.69;5003950;28;19929;-64
2023/03/20 02:52:55;;;;;;;;;;;;;;;6.44;100.00;96917.06;5050423;28;20316;-65
2023/03/20 02:55:40;;;;;;;;;;;;;;;6.35;100.00;96908.19;5054901;28;20404;-69
2023/03/20 02:58:05;;;;;;;;;;;;;;;6.31;100.00;96913.50;5055150;28;20335;-66
2023/03/20 03:00:36;;;;;;;;;;;;;;;6.37;100.00;96924.19;5057201;28;19924;-65
2023/03/20 03:03:07;;;;;;;;;;;;;;;6.24;100.00;96921.41;5067474;28;19920;-64
2023/03/20 03:05:45;;;;;;;;;;;;;;;6.35;100.00;96923.72;5078549;28;20005;-63
2023/03/20 03:08:13;;;;;;;;;;;;;;;6.53;100.00;96924.38;5067251;28;19923;-65
2023/03/20 03:10:48;;;;;;;;;;;;;;;6.53;100.00;96921.66;5063341;28;19927;-65
2023/03/20 03:13:16;;;;;;;;;;;;;;;6.37;100.00;96933.13;5079875;28;19916;-65
2023/03/20 03:15:44;;;;;;;;;;;;;;;6.33;100.00;96932.22;5073416;28;19920;-62
2023/03/20 03:18:13;;;;;;;;;;;;;;;6.31;100.00;96926.31;5063238;28;19917;-64
2023/03/20 03:20:39;;;;;;;;;;;;;;;6.28;100.00;96937.84;5066313;28;19967;-65
2023/03/20 03:23:05;;;;;;;;;;;;;;;6.43;100.00;96939.19;5060807;28;19916;-69
2023/03/20 03:25:34;;;;;;;;;;;;;;;6.55;100.00;96925.63;5065288;28;20118;-68
2023/03/20 03:28:00;;;;;;;;;;;;;;;6.64;100.00;96931.78;5065363;28;19956;-67
2023/03/20 03:30:27;;;;;;;;;;;;;;;6.76;100.00;96933.75;5060028;28;19970;-66
2023/03/20 03:33:08;;;;;;;;;;;;;;;6.74;100.00;96932.50;5065112;28;19967;-65
2023/03/20 03:35:34;;;;;;;;;;;;;;;6.72;100.00;96945.63;5063667;28;19930;-65
2023/03/20 03:38:03;;;;;;;;;;;;;;;6.60;100.00;96943.69;5065110;28;19916;-64
2023/03/20 03:40:44;;;;;;;;;;;;;;;6.35;100.00;96943.56;5062434;28;19917;-66
2023/03/20 03:43:16;;;;;;;;;;;;;;;6.13;100.00;96939.25;5059996;28;19917;-66
2023/03/20 03:45:47;;;;;;;;;;;;;;;5.95;100.00;96938.56;5064966;28;20026;-66
2023/03/20 03:48:21;;;;;;;;;;;;;;;5.78;100.00;96941.38;5061374;28;19924;-65
2023/03/20 03:50:55;;;;;;;;;;;;;;;5.68;100.00;96942.56;5071183;28;20388;-65
2023/03/20 03:53:26;;;;;;;;;;;;;;;5.61;100.00;96943.06;5059058;28;19917;-65
2023/03/20 03:55:57;;;;;;;;;;;;;;;5.56;100.00;96945.97;5063479;28;19920;-65
2023/03/20 03:58:22;;;;;;;;;;;;;;;5.53;100.00;96950.16;5059627;28;19959;-69
2023/03/20 04:00:49;;;;;;;;;;;;;;;5.53;100.00;96952.88;5064067;28;19960;-69
2023/03/20 04:03:15;;;;;;;;;;;;;;;5.71;100.00;96952.78;5059766;28;19923;-64
2023/03/20 04:05:43;;;;;;;;;;;;;;;6.07;100.00;96954.97;5062071;28;20305;-65
2023/03/20 04:08:08;;;;;;;;;;;;;;;6.28;100.00;96960.44;5060082;28;20011;-66
2023/03/20 04:10:33;;;;;;;;;;;;;;;6.33;100.00;96964.88;5064614;28;20344;-66
2023/03/20 04:12:59;;;;;;;;;;;;;;;6.21;100.00;96962.06;5064422;28;19916;-65
2023/03/20 04:15:26;;;;;;;;;;;;;;;6.16;100.00;96965.00;5057771;28;19959;-64
2023/03/20 04:17:52;;;;;;;;;;;;;;;6.15;100.00;96972.34;5063454;28;20001;-67
2023/03/20 04:20:17;;;;;;;;;;;;;;;5.99;100.00;96972.13;5059303;28;19955;-66
2023/03/20 04:22:43;;;;;;;;;;;;;;;5.84;100.00;96975.41;5068692;28;19920;-70
2023/03/20 04:25:09;;;;;;;;;;;;;;;5.87;100.00;96978.28;5076205;28;19969;-70
2023/03/20 04:27:34;;;;;;;;;;;;;;;6.00;100.00;96983.84;5064782;28;19931;-69
2023/03/20 04:30:00;;;;;;;;;;;;;;;6.12;100.00;96979.28;5070120;28;19917;-67
2023/03/20 04:32:25;;;;;;;;;;;;;;;6.18;100.00;96982.59;5064583;28;19917;-66
2023/03/20 04:34:51;;;;;;;;;;;;;;;6.18;100.00;96979.06;5064062;28;19920;-70
2023/03/20 04:37:16;;;;;;;;;;;;;;;6.29;100.00;96986.50;5059062;28;19917;-63
2023/03/20 04:39:41;;;;;;;;;;;;;;;6.44;100.00;96982.38;5064241;28;19916;-65
2023/03/20 04:42:07;;;;;;;;;;;;;;;6.61;100.00;96986.91;5059402;28;19946;-67
2023/03/20 04:44:33;;;;;;;;;;;;;;;6.75;100.00;96989.31;5063462;28;19920;-65
2023/03/20 04:46:58;;;;;;;;;;;;;;;6.73;100.00;96982.63;5075421;28;19923;-67
2023/03/20 04:49:23;;;;;;;;;;;;;;;6.77;100.00;96987.06;5065242;28;20643;-69
2023/03/20 04:51:49;;;;;;;;;;;;;;;6.85;100.00;96985.41;5077733;28;19916;-66
2023/03/20 04:54:14;;;;;;;;;;;;;;;6.79;100.00;96995.69;5059938;28;19928;-65
2023/03/20 04:56:39;;;;;;;;;;;;;;;6.67;100.00;96998.38;5063367;28;19920;-69
2023/03/20 04:59:04;;;;;;;;;;;;;;;6.63;100.00;96992.00;5059040;28;20401;-75
2023/03/20 05:01:30;;;;;;;;;;;;;;;6.54;100.00;96997.50;5062144;28;19927;-67
2023/03/20 05:03:59;;;;;;;;;;;;;;;6.64;100.00;96999.81;5061291;28;19924;-68
2023/03/20 05:06:25;;;;;;;;;;;;;;;6.73;100.00;97002.47;5056652;28;20436;-65
2023/03/20 05:08:50;;;;;;;;;;;;;;;6.81;100.00;96993.44;5062313;28;19929;-69
2023/03/20 05:11:16;;;;;;;;;;;;;;;6.86;100.00;96990.50;5057932;28;19921;-71
2023/03/20 05:13:41;;;;;;;;;;;;;;;6.93;100.00;96997.31;5062452;28;19920;-68
2023/03/20 05:16:06;;;;;;;;;;;;;;;6.91;100.00;96994.16;5057369;28;19963;-67
2023/03/20 05:18:31;;;;;;;;;;;;;;;6.82;100.00;96988.78;5061392;28;20007;-67
2023/03/20 05:20:57;;;;;;;;;;;;;;;6.81;100.00;96990.72;5062898;28;19917;-66
2023/03/20 05:23:22;;;;;;;;;;;;;;;6.62;100.00;96998.56;5020519;28;19917;-70
2023/03/20 05:25:47;;;;;;;;;;;;;;;6.37;100.00;96994.94;5041065;28;19935;-65
2023/03/20 05:28:12;;;;;;;;;;;;;;;6.19;100.00;96992.31;5038551;28;20364;-67
2023/03/20 05:30:38;;;;;;;;;;;;;;;6.24;100.00;96994.84;5042264;28;19976;-64
2023/03/20 05:33:03;;;;;;;;;;;;;;;6.23;100.00;96982.41;5037934;28;19917;-75
2023/03/20 05:35:28;;;;;;;;;;;;;;;6.31;100.00;96988.88;5040485;28;20305;-65
2023/03/20 05:37:54;;;;;;;;;;;;;;;6.29;100.00;96986.50;5042365;28;20477;-65
2023/03/20 05:40:22;;;;;;;;;;;;;;;6.22;100.00;96988.94;5037478;28;19917;-67
2023/03/20 05:42:48;;;;;;;;;;;;;;;6.13;100.00;96996.38;5042648;28;20023;-65
2023/03/20 05:45:14;;;;;;;;;;;;;;;6.09;100.00;96998.97;5037532;28;20012;-66
2023/03/20 05:47:39;;;;;;;;;;;;;;;6.06;100.00;97004.25;5043862;28;19924;-67
2023/03/20 05:50:05;;;;;;;;;;;;;;;6.03;100.00;97008.44;5038951;28;19917;-68
2023/03/20 05:52:30;;;;;;;;;;;;;;;6.04;100.00;97015.47;5056581;28;20003;-66
2023/03/20 05:54:55;;;;;;;;;;;;;;;6.09;100.00;97014.47;5064274;28;20073;-69
2023/03/20 05:57:21;;;;;;;;;;;;;;;6.14;100.00;97011.56;5057848;28;19956;-67
2023/03/20 05:59:46;;;;;;;;;;;;;;;6.18;100.00;97017.16;5060221;28;19961;-67
2023/03/20 06:02:12;;;;;;;;;;;;;;;6.24;100.00;97018.53;5055460;28;19924;-68
2023/03/20 06:04:38;;;;;;;;;;;;;;;6.16;100.00;97028.34;5061579;28;19939;-65
2023/03/20 06:07:03;;;;;;;;;;;;;;;6.07;100.00;97025.69;5059846;28;19986;-76
2023/03/20 06:09:29;;;;;;;;;;;;;;;6.13;100.00;97029.00;5061351;28;19921;-69
2023/03/20 06:11:55;;;;;;;;;;;;;;;6.23;100.00;97033.25;5062418;28;19952;-69
2023/03/20 06:14:20;;;;;;;;;;;;;;;6.24;100.00;97040.31;5057487;28;19917;-69
2023/03/20 06:16:45;;;;;;;;;;;;;;;6.14;100.00;97036.06;5060794;28;20011;-62
2023/03/20 06:19:11;;;;;;;;;;;;;;;6.09;100.00;97041.69;5057858;28;19924;-65
2023/03/20 06:21:36;;;;;;;;;;;;;;;6.08;100.00;97040.84;5065880;28;19947;-66
2023/03/20 06:24:01;;;;;;;;;;;;;;;6.16;100.00;97047.41;5063191;28;20286;-66
2023/03/20 06:26:26;;;;;;;;;;;;;;;6.19;100.00;97040.50;5038206;28;19939;-66
2023/03/20 06:28:52;;;;;;;;;;;;;;;6.17;100.00;97032.66;5042094;28;19951;-65
2023/03/20 06:31:17;;;;;;;;;;;;;;;6.07;100.00;97031.13;5037716;28;19917;-66
2023/03/20 06:33:43;;;;;;;;;;;;;;;5.96;100.00;97029.91;5043481;28;19917;-64
2023/03/20 06:36:08;;;;;;;;;;;;;;;5.94;100.00;97032.13;5035424;28;19917;-66
2023/03/20 06:38:34;;;;;;;;;;;;;;;5.92;100.00;97024.31;5041429;28;20000;-66
2023/03/20 06:40:59;;;;;;;;;;;;;;;5.90;100.00;97025.75;5042190;28;19923;-65
2023/03/20 06:43:24;;;;;;;;;;;;;;;5.95;100.00;97028.28;5037933;28;20365;-65
2023/03/20 06:45:50;;;;;;;;;;;;;;;6.04;100.00;97031.78;5039669;28;19936;-66
2023/03/20 06:48:20;;;;;;;;;;;;;;;6.22;100.00;97037.13;5042611;28;19960;-68
2023/03/20 06:50:46;;;;;;;;;;;;;;;6.30;100.00;97042.50;5047181;28;20322;-67
2023/03/20 06:53:11;;;;;;;;;;;;;;;6.57;100.00;97048.56;5040782;28;19928;-68
2023/03/20 06:55:36;;;;;;;;;;;;;;;6.73;100.00;97051.47;5043570;28;19983;-63
2023/03/20 06:58:02;;;;;;;;;;;;;;;6.73;100.00;97051.47;5025101;28;19917;-72
2023/03/20 07:00:28;;;;;;;;;;;;;;;6.78;100.00;97053.19;5027425;28;19924;-66
2023/03/20 07:02:54;;;;;;;;;;;;;;;7.15;100.00;97056.88;5042944;28;20019;-65
2023/03/20 07:05:19;;;;;;;;;;;;;;;7.34;100.00;97063.75;5039203;28;20015;-64
2023/03/20 07:07:44;;;;;;;;;;;;;;;7.46;100.00;97061.06;5040966;28;19924;-67
2023/03/20 07:10:11;;;;;;;;;;;;;;;7.61;100.00;97073.22;5022229;28;20366;-64
2023/03/20 07:12:37;;;;;;;;;;;;;;;7.67;100.00;97066.44;5025064;28;19947;-69
2023/03/20 07:15:02;;;;;;;;;;;;;;;7.58;100.00;97060.25;5023713;28;20003;-72
2023/03/20 07:17:28;;;;;;;;;;;;;;;7.77;100.00;97067.91;5042093;28;19963;-65
2023/03/20 07:19:53;;;;;;;;;;;;;;;8.00;100.00;97069.06;5044813;28;19924;-66
2023/03/20 07:22:21;;;;;;;;;;;;;;;8.24;100.00;97070.19;5040168;28;19931;-65
2023/03/20 07:24:47;;;;;;;;;;;;;;;8.52;100.00;97070.31;5044572;28;19960;-71
2023/03/20 07:27:12;;;;;;;;;;;;;;;8.54;100.00;97069.97;5040420;28;20340;-67
2023/03/20 07:29:37;;;;;;;;;;;;;;;8.77;100.00;97071.06;5045221;28;19920;-65
2023/03/20 07:32:02;;;;;;;;;;;;;;;8.92;100.00;97064.06;5043413;28;19921;-72
2023/03/20 07:34:28;;;;;;;;;;;;;;;8.85;100.00;97066.59;5040035;28;19916;-64
2023/03/20 07:36:53;;;;;;;;;;;;;;;8.90;100.00;97063.63;5044666;28;20008;-67
2023/03/20 07:39:18;;;;;;;;;;;;;;;9.19;100.00;97065.22;5039869;28;20392;-66
2023/03/20 07:41:44;;;;;;;;;;;;;;;9.08;100.00;97066.88;5044694;28;20336;-66
2023/03/20 07:44:09;;;;;;;;;;;;;;;9.20;100.00;97063.28;5039901;28;19917;-64
2023/03/20 07:46:34;;;;;;;;;;;;;;;9.11;100.00;97066.16;5045012;28;19923;-65
2023/03/20 07:49:00;;;;;;;;;;;;;;;8.94;100.00;97061.00;5043953;28;19940;-70
2023/03/20 07:51:25;;;;;;;;;;;;;;;9.23;100.00;97061.78;5040509;28;19939;-66
2023/03/20 07:53:50;;;;;;;;;;;;;;;9.37;100.00;97062.19;5049336;28;19928;-65
2023/03/20 07:56:16;;;;;;;;;;;;;;;9.26;100.00;97059.16;5043319;28;19916;-64
2023/03/20 07:58:41;;;;;;;;;;;;;;;9.34;100.00;97068.34;5044295;28;19920;-65
2023/03/20 08:01:06;;;;;;;;;;;;;;;9.36;100.00;97060.56;5039728;28;19917;-66
2023/03/20 08:03:32;;;;;;;;;;;;;;;9.54;100.00;97052.84;5044233;28;19952;-65
2023/03/20 08:05:58;;;;;;;;;;;;;;;9.66;100.00;97049.25;5043749;28;19921;-63
2023/03/20 08:08:23;;;;;;;;;;;;;;;9.67;100.00;97056.28;5038816;28;20738;-66
2023/03/20 08:10:48;;;;;;;;;;;;;;;9.92;100.00;97062.38;5058679;28;19935;-65
2023/03/20 08:13:14;;;;;;;;;;;;;;;10.04;100.00;97067.78;5038587;28;19975;-65
2023/03/20 08:15:39;;;;;;;;;;;;;;;10.38;100.00;97068.22;5043582;28;20357;-68
2023/03/20 08:18:05;;;;;;;;;;;;;;;10.55;100.00;97072.50;5040420;28;20420;-69
2023/03/20 08:20:30;;;;;;;;;;;;;;;10.77;100.00;97076.53;5054460;28;19924;-67
2023/03/20 08:22:55;;;;;;;;;;;;;;;10.66;100.00;97073.53;5047831;28;19924;-66
2023/03/20 08:25:21;;;;;;;;;;;;;;;10.28;100.00;97074.19;5038051;28;20448;-69
2023/03/20 08:27:47;;;;;;;;;;;;;;;10.01;100.00;97079.44;5044567;28;19991;-63
2023/03/20 08:30:13;;;;;;;;;;;;;;;10.28;100.00;97077.75;5038953;28;20008;-65
2023/03/20 08:32:38;;;;;;;;;;;;;;;10.62;100.00;97077.34;5043853;28;20012;-66
2023/03/20 08:35:04;;;;;;;;;;;;;;;11.31;98.26;97082.28;5040772;28;19924;-74
2023/03/20 08:37:29;;;;;;;;;;;;;;;11.40;95.08;97086.41;5042168;28;19923;-65
2023/03/20 08:39:54;;;;;;;;;;;;;;;10.74;97.67;97092.88;5043580;28;19917;-65
2023/03/20 08:42:20;;;;;;;;;;;;;;;11.04;97.58;97090.41;5039485;28;20675;-66
2023/03/20 08:44:47;;;;;;;;;;;;;;;11.16;97.68;97095.72;5041394;28;20258;-66
2023/03/20 08:47:12;;;;;;;;;;;;;;;11.19;94.45;97089.50;5037704;28;20386;-68
2023/03/20 08:49:37;;;;;;;;;;;;;;;11.11;94.88;97076.84;5043198;28;19916;-65
2023/03/20 08:52:03;;;;;;;;;;;;;;;11.31;93.47;97083.09;5046861;28;19917;-73
2023/03/20 08:54:28;;;;;;;;;;;;;;;11.24;95.98;97072.78;5042095;28;19921;-68
2023/03/20 08:56:53;;;;;;;;;;;;;;;11.54;93.07;97082.34;5042402;28;20535;-65
2023/03/20 08:59:19;;;;;;;;;;;;;;;11.70;92.15;97074.78;5053717;28;20007;-67
2023/03/20 09:01:44;;;;;;;;;;;;;;;11.90;89.21;97077.50;5043125;28;19920;-65
2023/03/20 09:04:11;;;;;;;;;;;;;;;12.18;87.10;97079.97;5037234;28;19920;-65
2023/03/20 09:06:40;;;;;;;;;;;;;;;11.71;92.41;97070.13;5042534;28;19964;-69
2023/03/20 09:09:06;;;;;;;;;;;;;;;12.23;87.21;97079.66;5036926;28;19967;-64
2023/03/20 09:11:31;;;;;;;;;;;;;;;12.87;83.39;97073.50;5043399;28;19960;-69
2023/03/20 09:13:58;;;;;;;;;;;;;;;13.09;79.90;97080.88;5043068;28;19917;-70
2023/03/20 09:16:24;;;;;;;;;;;;;;;12.99;81.20;97074.06;5038090;28;19917;-67
2023/03/20 09:18:49;;;;;;;;;;;;;;;13.30;81.36;97076.78;5042291;28;20327;-69
2023/03/20 09:21:14;;;;;;;;;;;;;;;14.08;74.45;97078.75;5036728;28;19917;-67
2023/03/20 09:23:39;;;;;;;;;;;;;;;14.85;69.35;97082.50;5043831;28;19917;-66
2023/03/20 09:26:05;;;;;;;;;;;;;;;15.80;62.48;97081.72;5037191;28;19925;-70
2023/03/20 09:28:30;;;;;;;;;;;;;;;15.97;62.27;97083.72;5042080;28;19917;-66
2023/03/20 09:30:56;;;;;;;;;;;;;;;16.67;58.99;97080.50;5041769;28;19916;-70
2023/03/20 09:33:21;;;;;;;;;;;;;;;15.73;59.36;97076.13;5038192;28;19940;-66
2023/03/20 09:35:46;;;;;;;;;;;;;;;16.39;57.24;97079.38;5042288;28;20527;-65
2023/03/20 09:38:13;;;;;;;;;;;;;;;15.76;60.19;97073.41;5036885;28;19917;-68
2023/03/20 09:41:00;;;;;;;;;;;;;;;16.56;59.04;97071.47;5041381;28;19920;-68
2023/03/20 09:43:40;;;;;;;;;;;;;;;16.99;56.32;97071.41;5034377;28;19917;-67
2023/03/20 09:46:24;;;;;;;;;;;;;;;17.97;52.00;97067.00;5036556;28;19924;-68
2023/03/20 09:48:55;;;;;;;;;;;;;;;16.53;54.33;97077.78;5041385;28;19971;-66
2023/03/20 09:51:40;;;;;;;;;;;;;;;16.30;54.93;97073.47;5036473;28;19917;-67
2023/03/20 09:54:25;;;;;;;;;;;;;;;17.55;49.55;97072.34;5033539;28;19947;-66
2023/03/20 09:56:51;;;;;;;;;;;;;;;18.09;49.69;97066.47;5020686;28;19917;-68
2023/03/20 09:59:17;;;;;;;;;;;;;;;18.79;47.63;97068.25;5017096;28;20016;-66
2023/03/20 10:01:46;;;;;;;;;;;;;;;19.31;46.55;97067.31;5021852;28;20370;-66
2023/03/20 10:04:11;;;;;;;;;;;;;;;19.74;44.71;97066.78;5035348;28;19921;-66
2023/03/20 10:06:37;;;;;;;;;;;;;;;20.17;44.55;97051.44;5040714;28;19935;-69
2023/03/20 10:09:11;;;;;;;;;;;;;;;19.46;45.37;97054.00;5040557;28;19917;-73
2023/03/20 10:11:49;;;;;;;;;;;;;;;19.98;44.90;97056.47;5043286;28;19963;-66
2023/03/20 10:14:23;;;;;;;;;;;;;;;17.58;48.03;97063.22;5038062;28;20369;-66
2023/03/20 10:16:49;;;;;;;;;;;;;;;18.21;48.69;97051.34;5041907;28;20636;-66
2023/03/20 10:19:26;;;;;;;;;;;;;;;16.83;51.80;97052.47;5036738;28;20004;-66
2023/03/20 10:21:58;;;;;;;;;;;;;;;17.20;49.47;97046.41;5042779;28;19967;-66
2023/03/20 10:24:27;;;;;;;;;;;;;;;16.71;50.54;97056.44;5040907;28;20652;-65
2023/03/20 10:26:54;;;;;;;;;;;;;;;16.51;51.22;97058.03;5046053;28;20001;-68
2023/03/20 10:29:24;;;;;;;;;;;;;;;15.75;52.87;97048.94;5040816;28;19917;-66
2023/03/20 10:32:16;;;;;;;;;;;;;;;15.26;54.32;97049.19;5046084;28;19917;-67
2023/03/20 10:34:52;;;;;;;;;;;;;;;14.85;55.84;97045.88;5065239;28;19920;-68
2023/03/20 10:37:20;;;;;;;;;;;;;;;15.06;56.01;97051.47;5059052;28;20369;-67
2023/03/20 10:39:51;;;;;;;;;;;;;;;14.95;55.44;97047.09;5066105;28;19939;-64
2023/03/20 10:42:23;;;;;;;;;;;;;;;15.28;53.93;97046.03;5059536;28;20304;-68
2023/03/20 10:45:11;;;;;;;;;;;;;;;14.83;55.69;97043.47;5064913;28;19927;-67
2023/03/20 10:47:39;;;;;;;;;;;;;;;14.51;56.73;97054.28;5065315;28;19916;-70
2023/03/20 10:50:09;;;;;;;;;;;;;;;14.18;58.39;97042.25;5060135;28;19993;-68
2023/03/20 10:52:36;;;;;;;;;;;;;;;13.19;62.14;97040.91;5065432;28;19923;-67
2023/03/20 10:55:05;;;;;;;;;;;;;;;13.93;60.17;97044.81;5063416;28;20019;-73
2023/03/20 10:57:35;;;;;;;;;;;;;;;14.03;60.77;97038.63;5062939;28;20274;-70
2023/03/20 11:00:00;;;;;;;;;;;;;;;13.94;61.08;97038.94;5065046;28;19939;-65
2023/03/20 11:02:29;;;;;;;;;;;;;;;13.72;63.27;97039.91;5060328;28;20641;-67
2023/03/20 11:04:55;;;;;;;;;;;;;;;13.79;63.09;97033.69;5064552;28;19925;-66
2023/03/20 11:07:26;;;;;;;;;;;;;;;14.04;59.62;97033.88;5060553;28;20395;-66
2023/03/20 11:10:04;;;;;;;;;;;;;;;14.16;60.35;97033.59;5063610;28;19921;-67
2023/03/20 11:12:35;;;;;;;;;;;;;;;14.40;62.12;97037.69;5043764;28;20008;-68
2023/03/20 11:15:13;;;;;;;;;;;;;;;14.61;60.74;97037.06;5053864;28;19923;-66
2023/03/20 11:17:39;;;;;;;;;;;;;;;14.71;60.46;97030.03;5062498;28;19924;-67
2023/03/20 11:20:04;;;;;;;;;;;;;;;15.32;58.10;97038.56;5060687;28;19916;-72
2023/03/20 11:22:30;;;;;;;;;;;;;;;15.08;57.55;97038.09;5068471;28;19931;-69
2023/03/20 11:25:02;;;;;;;;;;;;;;;15.83;53.22;97029.25;5069076;28;19921;-66
2023/03/20 11:27:29;;;;;;;;;;;;;;;15.94;55.63;97026.47;5061326;28;19925;-68
2023/03/20 11:29:56;;;;;;;;;;;;;;;16.51;50.63;97028.44;5065088;28;20316;-66
2023/03/20 11:32:30;;;;;;;;;;;;;;;17.38;48.01;97026.94;5058890;28;20783;-65
2023/03/20 11:34:56;;;;;;;;;;;;;;;17.60;49.65;97029.59;5063577;28;20015;-66
2023/03/20 11:37:24;;;;;;;;;;;;;;;17.69;47.31;97029.16;5059185;28;19950;-67
2023/03/20 11:40:06;;;;;;;;;;;;;;;17.71;45.63;97026.75;5064352;28;20404;-67
2023/03/20 11:42:32;;;;;;;;;;;;;;;17.73;45.79;97029.91;5064001;28;19916;-66
2023/03/20 11:45:16;;;;;;;;;;;;;;;17.12;45.55;97046.84;5064681;28;19971;-66
2023/03/20 11:47:44;;;;;;;;;;;;;;;16.01;46.80;97045.03;5051165;28;20409;-65
2023/03/20 11:50:32;;;;;;;;;;;;;;;16.08;47.21;97041.47;5041817;28;19923;-67
2023/03/20 11:52:59;;;;;;;;;;;;;;;14.89;49.50;97039.19;5036834;28;20457;-65
2023/03/20 11:55:32;;;;;;;;;;;;;;;14.46;51.25;97038.94;5023459;28;19913;-67
2023/03/20 11:57:59;;;;;;;;;;;;;;;14.26;52.28;97043.91;5024520;28;20378;-66
2023/03/20 12:00:38;;;;;;;;;;;;;;;14.23;53.30;97047.44;5019718;28;19918;-66
2023/03/20 12:03:23;;;;;;;;;;;;;;;14.68;52.04;97045.38;5022243;28;19924;-74
2023/03/20 12:05:48;;;;;;;;;;;;;;;14.60;50.75;97040.22;5047247;28;19948;-66
2023/03/20 12:08:14;;;;;;;;;;;;;;;14.65;51.05;97048.13;5062105;28;20318;-67
2023/03/20 12:10:45;;;;;;;;;;;;;;;14.63;51.31;97037.47;5066785;28;19920;-68
2023/03/20 12:13:39;;;;;;;;;;;;;;;14.36;51.51;97036.88;5060236;28;19916;-67
2023/03/20 12:16:06;;;;;;;;;;;;;;;14.55;50.91;97030.31;5053901;28;19963;-72
2023/03/20 12:18:35;;;;;;;;;;;;;;;14.68;49.73;97026.09;5062554;28;19932;-69
2023/03/20 12:21:00;;;;;;;;;;;;;;;15.07;49.02;97027.44;5065187;28;19924;-67
2023/03/20 12:23:55;;;;;;;;;;;;;;;15.14;49.31;97026.69;5058832;28;20273;-67
2023/03/20 12:26:23;;;;;;;;;;;;;;;15.13;48.75;97017.63;5048955;28;19920;-69
2023/03/20 12:29:01;;;;;;;;;;;;;;;15.11;48.16;97019.97;5061111;28;20354;-66
2023/03/20 12:31:29;;;;;;;;;;;;;;;14.42;49.89;97016.06;5040354;28;20405;-66
2023/03/20 12:34:00;;;;;;;;;;;;;;;14.43;50.93;97012.13;5043839;28;20399;-66
2023/03/20 12:36:28;;;;;;;;;;;;;;;14.02;52.93;97015.00;5038786;28;20024;-65
2023/03/20 12:38:53;;;;;;;;;;;;;;;14.28;52.54;97013.22;5042699;28;19923;-64
2023/03/20 12:41:40;;;;;;;;;;;;;;;14.50;52.30;97011.41;5038859;28;19916;-67
2023/03/20 12:44:08;;;;;;;;;;;;;;;14.55;51.85;97011.03;5037967;28;19963;-70
2023/03/20 12:46:47;;;;;;;;;;;;;;;14.60;51.98;97012.66;5042330;28;19936;-65
2023/03/20 12:49:31;;;;;;;;;;;;;;;14.27;52.29;97006.13;5038894;28;19917;-64
2023/03/20 12:51:56;;;;;;;;;;;;;;;14.36;52.72;97008.53;5043497;28;19920;-65